KLM951 EHAM-EDDM
Flight info
| Callsign | KLM951 |
|---|---|
| Flight time | 1h 0m |
| Altitude | 33000 |
| Route | IVLU4W EDUPO Z739 MISGO DOJOH DODEN TABUM BOMBI T104 ROKIL ROKI1B |
| Aircraft | B738/M-VGDW/C |
Departure
| Time | 2026-05-06 17:51 |
|---|---|
| Airport | Amsterdam Airport Schiphol (EHAM) |
Arrival
| Time | 2026-05-06 18:51 |
|---|---|
| Airport | Munich Airport (EDDM) |
| Time | Latitude | Longitude | Altitude | Speed | Heading |
|---|---|---|---|---|---|
| 2026-05-06 17:20 | 52.30788 | 4.77226 | -2 ft | 0 kts | 183° |
| 2026-05-06 17:39 | 52.30799 | 4.77227 | -2 ft | 2 kts | 183° |
| 2026-05-06 17:39 | 52.30814 | 4.77229 | -2 ft | 1 kts | 183° |
| 2026-05-06 17:39 | 52.30824 | 4.77229 | -2 ft | 2 kts | 166° |
| 2026-05-06 17:39 | 52.30837 | 4.77217 | -2 ft | 2 kts | 134° |
| 2026-05-06 17:40 | 52.30844 | 4.77201 | -2 ft | 0 kts | 110° |
| 2026-05-06 17:40 | 52.30846 | 4.77190 | -2 ft | 1 kts | 105° |
| 2026-05-06 17:40 | 52.30846 | 4.77189 | -2 ft | 0 kts | 105° |
| 2026-05-06 17:42 | 52.30843 | 4.77238 | -2 ft | 8 kts | 93° |
| 2026-05-06 17:42 | 52.30839 | 4.77351 | -2 ft | 10 kts | 93° |
| 2026-05-06 17:43 | 52.30827 | 4.77449 | -2 ft | 8 kts | 135° |
| 2026-05-06 17:43 | 52.30765 | 4.77462 | -2 ft | 10 kts | 183° |
| 2026-05-06 17:43 | 52.30677 | 4.77452 | -2 ft | 15 kts | 191° |
| 2026-05-06 17:43 | 52.30600 | 4.77315 | -2 ft | 17 kts | 238° |
| 2026-05-06 17:44 | 52.30533 | 4.77142 | -2 ft | 18 kts | 238° |
| 2026-05-06 17:44 | 52.30461 | 4.76955 | -2 ft | 19 kts | 238° |
| 2026-05-06 17:44 | 52.30391 | 4.76770 | -2 ft | 19 kts | 238° |
| 2026-05-06 17:44 | 52.30321 | 4.76589 | -2 ft | 18 kts | 238° |
| 2026-05-06 17:45 | 52.30252 | 4.76409 | -2 ft | 18 kts | 238° |
| 2026-05-06 17:45 | 52.30188 | 4.76241 | -2 ft | 16 kts | 238° |
| 2026-05-06 17:45 | 52.30127 | 4.76084 | -2 ft | 15 kts | 238° |
| 2026-05-06 17:45 | 52.30071 | 4.75936 | -2 ft | 15 kts | 238° |
| 2026-05-06 17:46 | 52.30013 | 4.75786 | -2 ft | 16 kts | 238° |
| 2026-05-06 17:46 | 52.29950 | 4.75621 | -2 ft | 18 kts | 238° |
| 2026-05-06 17:46 | 52.29881 | 4.75443 | -2 ft | 18 kts | 238° |
| 2026-05-06 17:46 | 52.29831 | 4.75263 | -2 ft | 16 kts | 273° |
| 2026-05-06 17:47 | 52.29887 | 4.75108 | -2 ft | 15 kts | 311° |
| 2026-05-06 17:47 | 52.29959 | 4.74973 | -2 ft | 16 kts | 311° |
| 2026-05-06 17:47 | 52.30037 | 4.74830 | -2 ft | 17 kts | 312° |
| 2026-05-06 17:47 | 52.30120 | 4.74677 | -2 ft | 18 kts | 311° |
| 2026-05-06 17:48 | 52.30204 | 4.74522 | -2 ft | 17 kts | 311° |
| 2026-05-06 17:48 | 52.30282 | 4.74376 | -2 ft | 16 kts | 311° |
| 2026-05-06 17:48 | 52.30339 | 4.74232 | -2 ft | 14 kts | 285° |
| 2026-05-06 17:48 | 52.30328 | 4.74079 | -2 ft | 14 kts | 244° |
| 2026-05-06 17:49 | 52.30269 | 4.73977 | -2 ft | 8 kts | 218° |
| 2026-05-06 17:49 | 52.30237 | 4.73935 | -2 ft | 3 kts | 218° |
| 2026-05-06 17:49 | 52.30222 | 4.73916 | -2 ft | 4 kts | 218° |
| 2026-05-06 17:49 | 52.30193 | 4.73866 | -2 ft | 9 kts | 243° |
| 2026-05-06 17:50 | 52.30201 | 4.73765 | -2 ft | 9 kts | 313° |
| 2026-05-06 17:50 | 52.30260 | 4.73740 | -2 ft | 8 kts | 3° |
| 2026-05-06 17:50 | 52.30317 | 4.73746 | -2 ft | 7 kts | 4° |
| 2026-05-06 17:50 | 52.30418 | 4.73756 | -2 ft | 24 kts | 4° |
| 2026-05-06 17:51 | 52.30777 | 4.73787 | -2 ft | 59 kts | 1° |
| 2026-05-06 17:51 | 52.31376 | 4.73856 | 0 ft | 125 kts | 7° |
| 2026-05-06 17:51 | 52.32390 | 4.73972 | 413 ft | 158 kts | 6° |
| 2026-05-06 17:51 | 52.33519 | 4.74109 | 1194 ft | 171 kts | 5° |
| 2026-05-06 17:52 | 52.34777 | 4.74530 | 1623 ft | 211 kts | 27° |
| 2026-05-06 17:52 | 52.36137 | 4.75741 | 2530 ft | 233 kts | 24° |
| 2026-05-06 17:52 | 52.37632 | 4.76947 | 3312 ft | 250 kts | 33° |
| 2026-05-06 17:52 | 52.38937 | 4.78833 | 3755 ft | 253 kts | 43° |
| 2026-05-06 17:53 | 52.40174 | 4.80896 | 4294 ft | 256 kts | 43° |
| 2026-05-06 17:53 | 52.41377 | 4.83053 | 4798 ft | 261 kts | 51° |
| 2026-05-06 17:53 | 52.42200 | 4.85727 | 5278 ft | 270 kts | 70° |
| 2026-05-06 17:53 | 52.42435 | 4.88782 | 5772 ft | 276 kts | 88° |
| 2026-05-06 17:54 | 52.42407 | 4.91931 | 6309 ft | 279 kts | 87° |
| 2026-05-06 17:54 | 52.42352 | 4.95114 | 6810 ft | 286 kts | 95° |
| 2026-05-06 17:54 | 52.41781 | 4.98216 | 7290 ft | 289 kts | 112° |
| 2026-05-06 17:54 | 52.40687 | 5.01014 | 7775 ft | 295 kts | 131° |
| 2026-05-06 17:55 | 52.39110 | 5.03110 | 8265 ft | 296 kts | 151° |
| 2026-05-06 17:55 | 52.37343 | 5.04843 | 8791 ft | 297 kts | 148° |
| 2026-05-06 17:55 | 52.35634 | 5.06756 | 9295 ft | 298 kts | 147° |
| 2026-05-06 17:55 | 52.33958 | 5.08723 | 9791 ft | 299 kts | 143° |
| 2026-05-06 17:56 | 52.32462 | 5.11123 | 10308 ft | 303 kts | 134° |
| 2026-05-06 17:56 | 52.31051 | 5.13659 | 10825 ft | 305 kts | 134° |
| 2026-05-06 17:56 | 52.29622 | 5.16263 | 11332 ft | 305 kts | 134° |
| 2026-05-06 17:56 | 52.28181 | 5.18879 | 11921 ft | 324 kts | 135° |
| 2026-05-06 17:57 | 52.26628 | 5.21705 | 12574 ft | 341 kts | 135° |
| 2026-05-06 17:57 | 52.25037 | 5.24603 | 12976 ft | 353 kts | 134° |
| 2026-05-06 17:57 | 52.23534 | 5.27790 | 13237 ft | 350 kts | 128° |
| 2026-05-06 17:57 | 52.22117 | 5.31037 | 13780 ft | 355 kts | 128° |
| 2026-05-06 17:58 | 52.20701 | 5.34300 | 14275 ft | 359 kts | 128° |
| 2026-05-06 17:58 | 52.19234 | 5.37675 | 14783 ft | 364 kts | 129° |
| 2026-05-06 17:58 | 52.17770 | 5.41040 | 15284 ft | 368 kts | 129° |
| 2026-05-06 17:58 | 52.16282 | 5.44456 | 15788 ft | 371 kts | 129° |
| 2026-05-06 17:59 | 52.14798 | 5.47858 | 16286 ft | 375 kts | 129° |
| 2026-05-06 17:59 | 52.13282 | 5.51335 | 16790 ft | 379 kts | 129° |
| 2026-05-06 17:59 | 52.11738 | 5.54883 | 17299 ft | 383 kts | 130° |
| 2026-05-06 17:59 | 52.10191 | 5.58423 | 17803 ft | 387 kts | 130° |
| 2026-05-06 18:00 | 52.08619 | 5.62010 | 18310 ft | 391 kts | 130° |
| 2026-05-06 18:00 | 52.07047 | 5.65590 | 18811 ft | 395 kts | 131° |
| 2026-05-06 18:00 | 52.05316 | 5.69135 | 19298 ft | 395 kts | 137° |
| 2026-05-06 18:00 | 52.03539 | 5.72489 | 19793 ft | 399 kts | 137° |
| 2026-05-06 18:01 | 52.01720 | 5.75893 | 20285 ft | 403 kts | 137° |
| 2026-05-06 18:01 | 51.99869 | 5.79346 | 20781 ft | 407 kts | 138° |
| 2026-05-06 18:01 | 51.97995 | 5.82834 | 21278 ft | 411 kts | 139° |
| 2026-05-06 18:01 | 51.95945 | 5.85974 | 21733 ft | 405 kts | 149° |
| 2026-05-06 18:02 | 51.93926 | 5.89232 | 22236 ft | 421 kts | 136° |
| 2026-05-06 18:02 | 51.92083 | 5.92913 | 22799 ft | 426 kts | 137° |
| 2026-05-06 18:02 | 51.90165 | 5.96629 | 23350 ft | 430 kts | 137° |
| 2026-05-06 18:02 | 51.88251 | 6.00296 | 23881 ft | 435 kts | 137° |
| 2026-05-06 18:03 | 51.86267 | 6.04085 | 24418 ft | 440 kts | 138° |
| 2026-05-06 18:03 | 51.84307 | 6.07818 | 24939 ft | 445 kts | 138° |
| 2026-05-06 18:03 | 51.82296 | 6.11643 | 25472 ft | 449 kts | 138° |
| 2026-05-06 18:03 | 51.80250 | 6.15528 | 26012 ft | 454 kts | 138° |
| 2026-05-06 18:04 | 51.78209 | 6.19398 | 26545 ft | 458 kts | 138° |
| 2026-05-06 18:04 | 51.76139 | 6.23269 | 27068 ft | 461 kts | 140° |
| 2026-05-06 18:04 | 51.73988 | 6.27197 | 27595 ft | 465 kts | 140° |
| 2026-05-06 18:04 | 51.71865 | 6.31065 | 28094 ft | 469 kts | 140° |
| 2026-05-06 18:05 | 51.69700 | 6.35006 | 28601 ft | 472 kts | 140° |
| 2026-05-06 18:05 | 51.67506 | 6.38988 | 29072 ft | 477 kts | 140° |
| 2026-05-06 18:05 | 51.65297 | 6.42994 | 29506 ft | 481 kts | 140° |
| 2026-05-06 18:05 | 51.63089 | 6.46994 | 29943 ft | 485 kts | 140° |
| 2026-05-06 18:06 | 51.60851 | 6.51044 | 30394 ft | 489 kts | 140° |
| 2026-05-06 18:06 | 51.58570 | 6.55165 | 30846 ft | 492 kts | 140° |
| 2026-05-06 18:06 | 51.56316 | 6.59229 | 31279 ft | 495 kts | 140° |
| 2026-05-06 18:06 | 51.54007 | 6.63386 | 31721 ft | 498 kts | 141° |
| 2026-05-06 18:07 | 51.51708 | 6.67521 | 32148 ft | 501 kts | 142° |
| 2026-05-06 18:07 | 51.49395 | 6.71671 | 32556 ft | 503 kts | 142° |
| 2026-05-06 18:07 | 51.47056 | 6.75857 | 32867 ft | 508 kts | 142° |
| 2026-05-06 18:07 | 51.44689 | 6.80085 | 32917 ft | 519 kts | 141° |
| 2026-05-06 18:08 | 51.39779 | 6.88722 | 32888 ft | 520 kts | 145° |
| 2026-05-06 18:08 | 51.34668 | 6.96663 | 32879 ft | 514 kts | 146° |
| 2026-05-06 18:09 | 51.29507 | 7.04645 | 32883 ft | 519 kts | 145° |
| 2026-05-06 18:09 | 51.24323 | 7.12655 | 32875 ft | 522 kts | 144° |
| 2026-05-06 18:10 | 51.19115 | 7.20676 | 32863 ft | 525 kts | 144° |
| 2026-05-06 18:10 | 51.13850 | 7.28768 | 32861 ft | 525 kts | 144° |
| 2026-05-06 18:11 | 51.08602 | 7.36796 | 32863 ft | 525 kts | 144° |
| 2026-05-06 18:11 | 51.03348 | 7.44808 | 32864 ft | 525 kts | 144° |
| 2026-05-06 18:12 | 50.98072 | 7.52813 | 32862 ft | 525 kts | 143° |
| 2026-05-06 18:12 | 50.92862 | 7.60704 | 32845 ft | 519 kts | 142° |
| 2026-05-06 18:13 | 50.87648 | 7.68582 | 32803 ft | 519 kts | 142° |
| 2026-05-06 18:13 | 50.82453 | 7.76377 | 32798 ft | 518 kts | 143° |
| 2026-05-06 18:14 | 50.77208 | 7.84199 | 32799 ft | 519 kts | 143° |
| 2026-05-06 18:14 | 50.71969 | 7.91985 | 32800 ft | 518 kts | 143° |
| 2026-05-06 18:15 | 50.66740 | 7.99732 | 32802 ft | 519 kts | 143° |
| 2026-05-06 18:15 | 50.61500 | 8.07470 | 32803 ft | 519 kts | 143° |
| 2026-05-06 18:16 | 50.56261 | 8.15181 | 32804 ft | 519 kts | 143° |
| 2026-05-06 18:16 | 50.51019 | 8.22874 | 32806 ft | 519 kts | 143° |
| 2026-05-06 18:17 | 50.45714 | 8.30632 | 32813 ft | 519 kts | 143° |
| 2026-05-06 18:17 | 50.40440 | 8.38322 | 32824 ft | 519 kts | 143° |
| 2026-05-06 18:18 | 50.35166 | 8.45986 | 32860 ft | 519 kts | 143° |
| 2026-05-06 18:18 | 50.29901 | 8.53616 | 32916 ft | 519 kts | 143° |
| 2026-05-06 18:19 | 50.24585 | 8.61291 | 32973 ft | 519 kts | 143° |
| 2026-05-06 18:19 | 50.19415 | 8.68735 | 32991 ft | 518 kts | 144° |
| 2026-05-06 18:20 | 50.14097 | 8.76364 | 32996 ft | 518 kts | 144° |
| 2026-05-06 18:20 | 50.08826 | 8.83905 | 32998 ft | 518 kts | 144° |
| 2026-05-06 18:21 | 50.03517 | 8.91473 | 32998 ft | 519 kts | 143° |
| 2026-05-06 18:21 | 49.98174 | 8.99066 | 33001 ft | 524 kts | 143° |
| 2026-05-06 18:22 | 49.92800 | 9.06679 | 33003 ft | 528 kts | 143° |
| 2026-05-06 18:22 | 49.87362 | 9.14365 | 32996 ft | 530 kts | 142° |
| 2026-05-06 18:23 | 49.81944 | 9.21997 | 32969 ft | 530 kts | 142° |
| 2026-05-06 18:23 | 49.76482 | 9.29668 | 32904 ft | 530 kts | 142° |
| 2026-05-06 18:24 | 49.71032 | 9.37291 | 32839 ft | 530 kts | 142° |
| 2026-05-06 18:24 | 49.65571 | 9.44910 | 32835 ft | 529 kts | 142° |
| 2026-05-06 18:25 | 49.60140 | 9.52459 | 32692 ft | 533 kts | 142° |
| 2026-05-06 18:25 | 49.57387 | 9.56282 | 32248 ft | 533 kts | 142° |
| 2026-05-06 18:25 | 49.54645 | 9.60085 | 31810 ft | 530 kts | 142° |
| 2026-05-06 18:26 | 49.51919 | 9.63859 | 31370 ft | 526 kts | 142° |
| 2026-05-06 18:26 | 49.49211 | 9.67598 | 30922 ft | 523 kts | 143° |
| 2026-05-06 18:26 | 49.46516 | 9.71318 | 30469 ft | 521 kts | 143° |
| 2026-05-06 18:26 | 49.43824 | 9.75023 | 30022 ft | 521 kts | 143° |
| 2026-05-06 18:27 | 49.41141 | 9.78710 | 29577 ft | 521 kts | 143° |
| 2026-05-06 18:27 | 49.38507 | 9.82443 | 29155 ft | 523 kts | 139° |
| 2026-05-06 18:27 | 49.36042 | 9.86560 | 28730 ft | 523 kts | 136° |
| 2026-05-06 18:27 | 49.33649 | 9.90686 | 28298 ft | 511 kts | 136° |
| 2026-05-06 18:28 | 49.31327 | 9.94687 | 27826 ft | 502 kts | 136° |
| 2026-05-06 18:28 | 49.29040 | 9.98617 | 27360 ft | 492 kts | 136° |
| 2026-05-06 18:28 | 49.26778 | 10.02501 | 26894 ft | 484 kts | 136° |
| 2026-05-06 18:28 | 49.24568 | 10.06291 | 26446 ft | 475 kts | 136° |
| 2026-05-06 18:29 | 49.22383 | 10.10030 | 26008 ft | 466 kts | 136° |
| 2026-05-06 18:29 | 49.20245 | 10.13687 | 25575 ft | 458 kts | 136° |
| 2026-05-06 18:29 | 49.18159 | 10.17250 | 25150 ft | 452 kts | 136° |
| 2026-05-06 18:29 | 49.16057 | 10.20841 | 24842 ft | 446 kts | 137° |
| 2026-05-06 18:30 | 49.14007 | 10.24299 | 24814 ft | 444 kts | 138° |
| 2026-05-06 18:30 | 49.11865 | 10.27760 | 24748 ft | 452 kts | 138° |
| 2026-05-06 18:30 | 49.09707 | 10.31238 | 24248 ft | 455 kts | 138° |
| 2026-05-06 18:30 | 49.07548 | 10.34717 | 23805 ft | 450 kts | 137° |
| 2026-05-06 18:31 | 49.05398 | 10.38172 | 23347 ft | 444 kts | 137° |
| 2026-05-06 18:31 | 49.03297 | 10.41543 | 22896 ft | 438 kts | 137° |
| 2026-05-06 18:31 | 49.01205 | 10.44893 | 22447 ft | 434 kts | 137° |
| 2026-05-06 18:31 | 48.99131 | 10.48204 | 22005 ft | 432 kts | 137° |
| 2026-05-06 18:32 | 48.97095 | 10.51451 | 21571 ft | 430 kts | 137° |
| 2026-05-06 18:32 | 48.95016 | 10.54764 | 21088 ft | 430 kts | 136° |
| 2026-05-06 18:32 | 48.92976 | 10.58018 | 20600 ft | 426 kts | 136° |
| 2026-05-06 18:32 | 48.90936 | 10.61266 | 20105 ft | 422 kts | 137° |
| 2026-05-06 18:33 | 48.88938 | 10.64440 | 19613 ft | 417 kts | 137° |
| 2026-05-06 18:33 | 48.86946 | 10.67602 | 19104 ft | 412 kts | 137° |
| 2026-05-06 18:33 | 48.84959 | 10.70749 | 18589 ft | 408 kts | 138° |
| 2026-05-06 18:33 | 48.83033 | 10.73797 | 18087 ft | 404 kts | 138° |
| 2026-05-06 18:34 | 48.81101 | 10.76849 | 17580 ft | 400 kts | 138° |
| 2026-05-06 18:34 | 48.79190 | 10.79855 | 17074 ft | 396 kts | 138° |
| 2026-05-06 18:34 | 48.77318 | 10.82798 | 16835 ft | 384 kts | 138° |
| 2026-05-06 18:34 | 48.75479 | 10.85683 | 16858 ft | 380 kts | 139° |
| 2026-05-06 18:35 | 48.73617 | 10.88594 | 16853 ft | 384 kts | 139° |
| 2026-05-06 18:35 | 48.71784 | 10.91464 | 16848 ft | 383 kts | 139° |
| 2026-05-06 18:35 | 48.69918 | 10.94386 | 16842 ft | 380 kts | 139° |
| 2026-05-06 18:35 | 48.68110 | 10.97206 | 16822 ft | 378 kts | 139° |
| 2026-05-06 18:36 | 48.66262 | 11.00082 | 16303 ft | 380 kts | 139° |
| 2026-05-06 18:36 | 48.64454 | 11.02900 | 15820 ft | 374 kts | 139° |
| 2026-05-06 18:36 | 48.62645 | 11.05712 | 15291 ft | 364 kts | 139° |
| 2026-05-06 18:36 | 48.60928 | 11.08372 | 14786 ft | 355 kts | 139° |
| 2026-05-06 18:37 | 48.59206 | 11.11037 | 14272 ft | 348 kts | 139° |
| 2026-05-06 18:37 | 48.57423 | 11.13401 | 13741 ft | 339 kts | 148° |
| 2026-05-06 18:37 | 48.55520 | 11.15416 | 13225 ft | 335 kts | 149° |
| 2026-05-06 18:37 | 48.53594 | 11.17390 | 12725 ft | 333 kts | 150° |
| 2026-05-06 18:38 | 48.51702 | 11.19346 | 12226 ft | 332 kts | 147° |
| 2026-05-06 18:38 | 48.49940 | 11.21591 | 11720 ft | 327 kts | 142° |
| 2026-05-06 18:38 | 48.48273 | 11.23829 | 11145 ft | 318 kts | 142° |
| 2026-05-06 18:38 | 48.46652 | 11.26012 | 10580 ft | 310 kts | 141° |
| 2026-05-06 18:39 | 48.45084 | 11.28123 | 9987 ft | 300 kts | 141° |
| 2026-05-06 18:39 | 48.43567 | 11.30215 | 9378 ft | 290 kts | 136° |
| 2026-05-06 18:39 | 48.42509 | 11.32761 | 8798 ft | 292 kts | 116° |
| 2026-05-06 18:40 | 48.41757 | 11.38729 | 7991 ft | 300 kts | 82° |
| 2026-05-06 18:40 | 48.42062 | 11.41774 | 7865 ft | 292 kts | 83° |
| 2026-05-06 18:40 | 48.42312 | 11.44794 | 7843 ft | 293 kts | 84° |
| 2026-05-06 18:40 | 48.42559 | 11.47893 | 7838 ft | 297 kts | 84° |
| 2026-05-06 18:41 | 48.42804 | 11.50976 | 7834 ft | 298 kts | 84° |
| 2026-05-06 18:41 | 48.43047 | 11.54056 | 7832 ft | 298 kts | 84° |
| 2026-05-06 18:41 | 48.43294 | 11.57169 | 7832 ft | 298 kts | 84° |
| 2026-05-06 18:41 | 48.43537 | 11.60267 | 7831 ft | 298 kts | 84° |
| 2026-05-06 18:42 | 48.43775 | 11.63344 | 7832 ft | 299 kts | 84° |
| 2026-05-06 18:42 | 48.44022 | 11.66497 | 7807 ft | 301 kts | 84° |
| 2026-05-06 18:42 | 48.44269 | 11.69628 | 7424 ft | 301 kts | 85° |
| 2026-05-06 18:42 | 48.44501 | 11.72700 | 7045 ft | 297 kts | 84° |
| 2026-05-06 18:43 | 48.44739 | 11.75809 | 6657 ft | 295 kts | 84° |
| 2026-05-06 18:43 | 48.44975 | 11.78835 | 6284 ft | 293 kts | 84° |
| 2026-05-06 18:43 | 48.45201 | 11.81853 | 5906 ft | 292 kts | 83° |
| 2026-05-06 18:43 | 48.45443 | 11.84893 | 5530 ft | 290 kts | 84° |
| 2026-05-06 18:44 | 48.45668 | 11.87891 | 5103 ft | 289 kts | 84° |
| 2026-05-06 18:44 | 48.45896 | 11.90811 | 4691 ft | 287 kts | 85° |
| 2026-05-06 18:44 | 48.46101 | 11.93748 | 4262 ft | 285 kts | 83° |
| 2026-05-06 18:44 | 48.46339 | 11.96702 | 4070 ft | 274 kts | 84° |
| 2026-05-06 18:45 | 48.46543 | 11.99538 | 4001 ft | 279 kts | 84° |
| 2026-05-06 18:45 | 48.46760 | 12.02482 | 4024 ft | 282 kts | 82° |
| 2026-05-06 18:45 | 48.46966 | 12.05426 | 4004 ft | 284 kts | 88° |
| 2026-05-06 18:45 | 48.46668 | 12.08333 | 3975 ft | 278 kts | 114° |
| 2026-05-06 18:46 | 48.45656 | 12.10629 | 3941 ft | 254 kts | 140° |
| 2026-05-06 18:46 | 48.44178 | 12.11841 | 3930 ft | 232 kts | 170° |
| 2026-05-06 18:46 | 48.42651 | 12.11818 | 3975 ft | 217 kts | 200° |
| 2026-05-06 18:46 | 48.41416 | 12.10595 | 4052 ft | 214 kts | 228° |
| 2026-05-06 18:47 | 48.40524 | 12.08844 | 4033 ft | 205 kts | 233° |
| 2026-05-06 18:47 | 48.39706 | 12.07245 | 3960 ft | 183 kts | 234° |
| 2026-05-06 18:47 | 48.38921 | 12.05829 | 3935 ft | 167 kts | 231° |
| 2026-05-06 18:47 | 48.38345 | 12.04331 | 3946 ft | 170 kts | 260° |
| 2026-05-06 18:48 | 48.38217 | 12.02544 | 4019 ft | 172 kts | 262° |
| 2026-05-06 18:48 | 48.38077 | 12.00727 | 3883 ft | 176 kts | 261° |
| 2026-05-06 18:48 | 48.37941 | 11.98909 | 3658 ft | 175 kts | 262° |
| 2026-05-06 18:48 | 48.37808 | 11.97108 | 3425 ft | 173 kts | 262° |
| 2026-05-06 18:49 | 48.37677 | 11.95313 | 3199 ft | 172 kts | 261° |
| 2026-05-06 18:49 | 48.37544 | 11.93555 | 2956 ft | 165 kts | 262° |
| 2026-05-06 18:49 | 48.37421 | 11.91872 | 2729 ft | 160 kts | 261° |
| 2026-05-06 18:49 | 48.37291 | 11.90217 | 2521 ft | 159 kts | 263° |
| 2026-05-06 18:50 | 48.37169 | 11.88580 | 2323 ft | 154 kts | 263° |
| 2026-05-06 18:50 | 48.37059 | 11.87026 | 2121 ft | 147 kts | 261° |
| 2026-05-06 18:50 | 48.36938 | 11.85478 | 1927 ft | 148 kts | 261° |
| 2026-05-06 18:50 | 48.36813 | 11.83956 | 1767 ft | 147 kts | 265° |
| 2026-05-06 18:51 | 48.36710 | 11.82466 | 1542 ft | 137 kts | 262° |
| 2026-05-06 18:51 | 48.36615 | 11.81070 | 1448 ft | 119 kts | 263° |
| 2026-05-06 18:51 | 48.36547 | 11.80253 | 1451 ft | 52 kts | 263° |
| 2026-05-06 18:51 | 48.36508 | 11.79882 | 1454 ft | 27 kts | 253° |
| 2026-05-06 18:52 | 48.36440 | 11.79679 | 1456 ft | 11 kts | 234° |
| 2026-05-06 18:52 | 48.36398 | 11.79593 | 1457 ft | 8 kts | 233° |
| 2026-05-06 18:52 | 48.36366 | 11.79527 | 1458 ft | 7 kts | 233° |
| 2026-05-06 18:52 | 48.36342 | 11.79478 | 1459 ft | 6 kts | 233° |
| 2026-05-06 18:53 | 48.36305 | 11.79404 | 1460 ft | 10 kts | 234° |
| 2026-05-06 18:53 | 48.36256 | 11.79320 | 1461 ft | 10 kts | 217° |
| 2026-05-06 18:53 | 48.36190 | 11.79298 | 1462 ft | 9 kts | 176° |
| 2026-05-06 18:53 | 48.36109 | 11.79290 | 1463 ft | 12 kts | 217° |
| 2026-05-06 18:54 | 48.36083 | 11.79167 | 1464 ft | 13 kts | 264° |
| 2026-05-06 18:54 | 48.36073 | 11.79030 | 1465 ft | 13 kts | 263° |
| 2026-05-06 18:54 | 48.36061 | 11.78885 | 1465 ft | 14 kts | 263° |
| 2026-05-06 18:54 | 48.36050 | 11.78741 | 1465 ft | 13 kts | 263° |
| 2026-05-06 18:55 | 48.36040 | 11.78610 | 1466 ft | 11 kts | 264° |
| 2026-05-06 18:55 | 48.36031 | 11.78489 | 1466 ft | 11 kts | 264° |
| 2026-05-06 18:55 | 48.36021 | 11.78358 | 1465 ft | 14 kts | 263° |
| 2026-05-06 18:55 | 48.36009 | 11.78208 | 1465 ft | 14 kts | 264° |
| 2026-05-06 18:56 | 48.35998 | 11.78061 | 1465 ft | 14 kts | 263° |
| 2026-05-06 18:56 | 48.35987 | 11.77918 | 1465 ft | 13 kts | 263° |
| 2026-05-06 18:56 | 48.35977 | 11.77792 | 1465 ft | 11 kts | 263° |
| 2026-05-06 18:56 | 48.35953 | 11.77699 | 1465 ft | 8 kts | 217° |
| 2026-05-06 18:57 | 48.35896 | 11.77687 | 1465 ft | 9 kts | 174° |
| 2026-05-06 18:57 | 48.35823 | 11.77699 | 1466 ft | 12 kts | 173° |
| 2026-05-06 18:57 | 48.35728 | 11.77717 | 1467 ft | 15 kts | 173° |
| 2026-05-06 18:57 | 48.35627 | 11.77734 | 1468 ft | 13 kts | 174° |
| 2026-05-06 18:58 | 48.35542 | 11.77748 | 1469 ft | 11 kts | 173° |
| 2026-05-06 18:58 | 48.35457 | 11.77762 | 1470 ft | 13 kts | 173° |
| 2026-05-06 18:58 | 48.35362 | 11.77779 | 1471 ft | 14 kts | 173° |
| 2026-05-06 18:58 | 48.35252 | 11.77798 | 1471 ft | 17 kts | 174° |
| 2026-05-06 18:59 | 48.35136 | 11.77817 | 1471 ft | 2 kts | 174° |
| 2026-05-06 18:59 | 48.35119 | 11.77821 | 1471 ft | 6 kts | 173° |
| 2026-05-06 18:59 | 48.35056 | 11.77833 | 1472 ft | 3 kts | 173° |
| 2026-05-06 18:59 | 48.35053 | 11.77833 | 1472 ft | 0 kts | 173° |
| 2026-05-06 19:00 | 48.35048 | 11.77834 | 1472 ft | 1 kts | 173° |
| 2026-05-06 19:01 | 48.35035 | 11.77836 | 1472 ft | 4 kts | 174° |
| 2026-05-06 19:01 | 48.34989 | 11.77844 | 1472 ft | 5 kts | 170° |
| 2026-05-06 19:01 | 48.34968 | 11.77898 | 1472 ft | 8 kts | 90° |
| 2026-05-06 19:01 | 48.34972 | 11.77952 | 1472 ft | 1 kts | 84° |
| 2026-05-06 19:02 | 48.34973 | 11.77972 | 1472 ft | 0 kts | 83° |
| 2026-05-06 19:02 | 48.34973 | 11.77971 | 1472 ft | 0 kts | 83° |
| 2026-05-06 19:03 | 48.34973 | 11.77974 | 1472 ft | 0 kts | 83° |